sensor_id;sensor_type;location;lat;lon;timestamp;pressure;altitude;pressure_sealevel;temperature
74043;BMP280;62384;53.600;10.040;2022-11-25T00:01:42;-9406.56;;;6.00
74043;BMP280;62384;53.600;10.040;2022-11-25T00:04:08;-9405.91;;;5.98
74043;BMP280;62384;53.600;10.040;2022-11-25T00:06:34;-9407.09;;;6.02
74043;BMP280;62384;53.600;10.040;2022-11-25T00:09:03;-9409.59;;;6.12
74043;BMP280;62384;53.600;10.040;2022-11-25T00:11:28;-9408.28;;;6.07
74043;BMP280;62384;53.600;10.040;2022-11-25T00:13:55;-9409.59;;;6.12
74043;BMP280;62384;53.600;10.040;2022-11-25T00:16:21;-9412.22;;;6.22
74043;BMP280;62384;53.600;10.040;2022-11-25T00:18:49;-9410.75;;;6.16
74043;BMP280;62384;53.600;10.040;2022-11-25T00:21:18;-9409.19;;;6.10
74043;BMP280;62384;53.600;10.040;2022-11-25T00:23:44;-9410.09;;;6.14
74043;BMP280;62384;53.600;10.040;2022-11-25T00:26:13;-9411.16;;;6.18
74043;BMP280;62384;53.600;10.040;2022-11-25T00:28:40;-9413.78;;;6.28
74043;BMP280;62384;53.600;10.040;2022-11-25T00:31:10;-9409.47;;;6.11
74043;BMP280;62384;53.600;10.040;2022-11-25T00:33:37;-9413.13;;;6.26
74043;BMP280;62384;53.600;10.040;2022-11-25T00:36:04;-9412.09;;;6.22
74043;BMP280;62384;53.600;10.040;2022-11-25T00:38:30;-9408.94;;;6.09
74043;BMP280;62384;53.600;10.040;2022-11-25T00:40:55;-9408.41;;;6.07
74043;BMP280;62384;53.600;10.040;2022-11-25T00:43:39;-9408.81;;;6.09
74043;BMP280;62384;53.600;10.040;2022-11-25T00:46:23;-9408.53;;;6.08
74043;BMP280;62384;53.600;10.040;2022-11-25T00:48:48;-9409.84;;;6.13
74043;BMP280;62384;53.600;10.040;2022-11-25T00:51:13;-9408.94;;;6.09
74043;BMP280;62384;53.600;10.040;2022-11-25T00:53:38;-9405.50;;;5.96
74043;BMP280;62384;53.600;10.040;2022-11-25T00:56:04;-9408.66;;;6.08
74043;BMP280;62384;53.600;10.040;2022-11-25T00:58:39;-9409.19;;;6.10
74043;BMP280;62384;53.600;10.040;2022-11-25T01:01:05;-9405.91;;;5.98
74043;BMP280;62384;53.600;10.040;2022-11-25T01:03:31;-9411.03;;;6.17
74043;BMP280;62384;53.600;10.040;2022-11-25T01:06:00;-9411.16;;;6.18
74043;BMP280;62384;53.600;10.040;2022-11-25T01:08:28;-9411.28;;;6.18
74043;BMP280;62384;53.600;10.040;2022-11-25T01:11:05;-9411.16;;;6.18
74043;BMP280;62384;53.600;10.040;2022-11-25T01:13:31;-9410.38;;;6.15
74043;BMP280;62384;53.600;10.040;2022-11-25T01:16:00;-9410.25;;;6.14
74043;BMP280;62384;53.600;10.040;2022-11-25T01:18:27;-9409.19;;;6.10
74043;BMP280;62384;53.600;10.040;2022-11-25T01:20:52;-9406.97;;;6.02
74043;BMP280;62384;53.600;10.040;2022-11-25T01:23:17;-9408.28;;;6.07
74043;BMP280;62384;53.600;10.040;2022-11-25T01:25:42;-9409.72;;;6.12
74043;BMP280;62384;53.600;10.040;2022-11-25T01:28:08;-9408.28;;;6.07
74043;BMP280;62384;53.600;10.040;2022-11-25T01:30:33;-9406.97;;;6.02
74043;BMP280;62384;53.600;10.040;2022-11-25T01:32:58;-9407.63;;;6.04
74043;BMP280;62384;53.600;10.040;2022-11-25T01:35:23;-9405.78;;;5.97
74043;BMP280;62384;53.600;10.040;2022-11-25T01:37:49;-9406.56;;;6.00
74043;BMP280;62384;53.600;10.040;2022-11-25T01:40:14;-9407.34;;;6.03
74043;BMP280;62384;53.600;10.040;2022-11-25T01:42:46;-9408.53;;;6.08
74043;BMP280;62384;53.600;10.040;2022-11-25T01:47:47;-9405.78;;;5.97
74043;BMP280;62384;53.600;10.040;2022-11-25T01:50:15;-9404.72;;;5.93
74043;BMP280;62384;53.600;10.040;2022-11-25T01:52:45;-9404.47;;;5.92
74043;BMP280;62384;53.600;10.040;2022-11-25T01:55:20;-9404.47;;;5.92
74043;BMP280;62384;53.600;10.040;2022-11-25T01:57:52;-9404.19;;;5.91
74043;BMP280;62384;53.600;10.040;2022-11-25T02:00:18;-9405.13;;;5.95
74043;BMP280;62384;53.600;10.040;2022-11-25T02:02:45;-9404.19;;;5.91
74043;BMP280;62384;53.600;10.040;2022-11-25T02:05:13;-9402.75;;;5.86
74043;BMP280;62384;53.600;10.040;2022-11-25T02:07:43;-9403.94;;;5.90
74043;BMP280;62384;53.600;10.040;2022-11-25T02:10:13;-9402.63;;;5.85
74043;BMP280;62384;53.600;10.040;2022-11-25T02:12:40;-9400.66;;;5.78
74043;BMP280;62384;53.600;10.040;2022-11-25T02:15:07;-9396.44;;;5.62
74043;BMP280;62384;53.600;10.040;2022-11-25T02:17:33;-9400.00;;;5.75
74043;BMP280;62384;53.600;10.040;2022-11-25T02:20:03;-9400.25;;;5.76
74043;BMP280;62384;53.600;10.040;2022-11-25T02:25:40;-9399.72;;;5.74
74043;BMP280;62384;53.600;10.040;2022-11-25T02:28:09;-9402.88;;;5.86
74043;BMP280;62384;53.600;10.040;2022-11-25T02:30:36;-9402.75;;;5.86
74043;BMP280;62384;53.600;10.040;2022-11-25T02:33:02;-9403.00;;;5.87
74043;BMP280;62384;53.600;10.040;2022-11-25T02:35:28;-9402.34;;;5.84
74043;BMP280;62384;53.600;10.040;2022-11-25T02:38:15;-9403.66;;;5.89
74043;BMP280;62384;53.600;10.040;2022-11-25T02:40:52;-9401.56;;;5.81
74043;BMP280;62384;53.600;10.040;2022-11-25T02:43:19;-9399.06;;;5.72
74043;BMP280;62384;53.600;10.040;2022-11-25T02:46:09;-9400.66;;;5.78
74043;BMP280;62384;53.600;10.040;2022-11-25T02:48:36;-9399.72;;;5.74
74043;BMP280;62384;53.600;10.040;2022-11-25T02:51:02;-9398.28;;;5.69
74043;BMP280;62384;53.600;10.040;2022-11-25T02:53:28;-9397.22;;;5.65
74043;BMP280;62384;53.600;10.040;2022-11-25T02:55:53;-9396.81;;;5.63
74043;BMP280;62384;53.600;10.040;2022-11-25T02:58:19;-9399.19;;;5.72
74043;BMP280;62384;53.600;10.040;2022-11-25T03:00:44;-9400.91;;;5.79
74043;BMP280;62384;53.600;10.040;2022-11-25T03:03:10;-9396.97;;;5.64
74043;BMP280;62384;53.600;10.040;2022-11-25T03:05:36;-9398.41;;;5.69
74043;BMP280;62384;53.600;10.040;2022-11-25T03:08:01;-9399.47;;;5.73
74043;BMP280;62384;53.600;10.040;2022-11-25T03:10:27;-9397.22;;;5.65
74043;BMP280;62384;53.600;10.040;2022-11-25T03:12:53;-9396.97;;;5.64
74043;BMP280;62384;53.600;10.040;2022-11-25T03:15:18;-9396.16;;;5.60
74043;BMP280;62384;53.600;10.040;2022-11-25T03:17:44;-9398.28;;;5.69
74043;BMP280;62384;53.600;10.040;2022-11-25T03:20:10;-9397.34;;;5.65
74043;BMP280;62384;53.600;10.040;2022-11-25T03:22:37;-9396.69;;;5.63
74043;BMP280;62384;53.600;10.040;2022-11-25T03:25:04;-9395.25;;;5.57
74043;BMP280;62384;53.600;10.040;2022-11-25T03:27:30;-9394.72;;;5.55
74043;BMP280;62384;53.600;10.040;2022-11-25T03:29:55;-9393.81;;;5.51
74043;BMP280;62384;53.600;10.040;2022-11-25T03:32:20;-9393.81;;;5.51
74043;BMP280;62384;53.600;10.040;2022-11-25T03:34:45;-9392.50;;;5.46
74043;BMP280;62384;53.600;10.040;2022-11-25T03:37:11;-9394.59;;;5.54
74043;BMP280;62384;53.600;10.040;2022-11-25T03:39:36;-9395.66;;;5.58
74043;BMP280;62384;53.600;10.040;2022-11-25T03:42:02;-9394.84;;;5.55
74043;BMP280;62384;53.600;10.040;2022-11-25T03:44:27;-9395.00;;;5.56
74043;BMP280;62384;53.600;10.040;2022-11-25T03:46:52;-9396.03;;;5.60
74043;BMP280;62384;53.600;10.040;2022-11-25T03:49:17;-9395.00;;;5.56
74043;BMP280;62384;53.600;10.040;2022-11-25T03:51:43;-9395.38;;;5.57
74043;BMP280;62384;53.600;10.040;2022-11-25T03:54:08;-9393.53;;;5.50
74043;BMP280;62384;53.600;10.040;2022-11-25T03:56:34;-9393.94;;;5.52
74043;BMP280;62384;53.600;10.040;2022-11-25T03:58:59;-9394.06;;;5.52
74043;BMP280;62384;53.600;10.040;2022-11-25T04:01:24;-9392.63;;;5.47
74043;BMP280;62384;53.600;10.040;2022-11-25T04:03:50;-9391.31;;;5.42
74043;BMP280;62384;53.600;10.040;2022-11-25T04:06:15;-9390.38;;;5.38
74043;BMP280;62384;53.600;10.040;2022-11-25T04:08:44;-9387.75;;;5.28
74043;BMP280;62384;53.600;10.040;2022-11-25T04:11:09;-9389.59;;;5.35
74043;BMP280;62384;53.600;10.040;2022-11-25T04:13:35;-9387.63;;;5.28
74043;BMP280;62384;53.600;10.040;2022-11-25T04:16:00;-9389.06;;;5.33
74043;BMP280;62384;53.600;10.040;2022-11-25T04:18:25;-9388.41;;;5.31
74043;BMP280;62384;53.600;10.040;2022-11-25T04:20:51;-9388.81;;;5.32
74043;BMP280;62384;53.600;10.040;2022-11-25T04:23:16;-9388.28;;;5.30
74043;BMP280;62384;53.600;10.040;2022-11-25T04:25:41;-9390.00;;;5.37
74043;BMP280;62384;53.600;10.040;2022-11-25T04:28:07;-9389.06;;;5.33
74043;BMP280;62384;53.600;10.040;2022-11-25T04:30:32;-9390.13;;;5.37
74043;BMP280;62384;53.600;10.040;2022-11-25T04:32:58;-9391.97;;;5.44
74043;BMP280;62384;53.600;10.040;2022-11-25T04:35:23;-9391.84;;;5.44
74043;BMP280;62384;53.600;10.040;2022-11-25T04:37:49;-9393.16;;;5.49
74043;BMP280;62384;53.600;10.040;2022-11-25T04:40:14;-9391.56;;;5.43
74043;BMP280;62384;53.600;10.040;2022-11-25T04:42:39;-9391.69;;;5.43
74043;BMP280;62384;53.600;10.040;2022-11-25T04:45:14;-9391.97;;;5.44
74043;BMP280;62384;53.600;10.040;2022-11-25T04:47:40;-9391.44;;;5.42
74043;BMP280;62384;53.600;10.040;2022-11-25T04:50:08;-9390.53;;;5.39
74043;BMP280;62384;53.600;10.040;2022-11-25T04:52:36;-9392.09;;;5.45
74043;BMP280;62384;53.600;10.040;2022-11-25T04:55:01;-9392.50;;;5.46
74043;BMP280;62384;53.600;10.040;2022-11-25T04:57:27;-9391.44;;;5.42
74043;BMP280;62384;53.600;10.040;2022-11-25T04:59:52;-9394.19;;;5.53
74043;BMP280;62384;53.600;10.040;2022-11-25T05:02:22;-9395.50;;;5.58
74043;BMP280;62384;53.600;10.040;2022-11-25T05:04:49;-9395.78;;;5.59
74043;BMP280;62384;53.600;10.040;2022-11-25T05:07:17;-9396.56;;;5.62
74043;BMP280;62384;53.600;10.040;2022-11-25T05:09:43;-9395.91;;;5.59
74043;BMP280;62384;53.600;10.040;2022-11-25T05:12:13;-9394.72;;;5.55
74043;BMP280;62384;53.600;10.040;2022-11-25T05:14:39;-9394.72;;;5.55
74043;BMP280;62384;53.600;10.040;2022-11-25T05:17:05;-9394.47;;;5.54
74043;BMP280;62384;53.600;10.040;2022-11-25T05:19:31;-9395.50;;;5.58
74043;BMP280;62384;53.600;10.040;2022-11-25T05:21:57;-9393.81;;;5.51
74043;BMP280;62384;53.600;10.040;2022-11-25T05:24:24;-9394.06;;;5.52
74043;BMP280;62384;53.600;10.040;2022-11-25T05:26:49;-9393.03;;;5.48
74043;BMP280;62384;53.600;10.040;2022-11-25T05:29:14;-9395.00;;;5.56
74043;BMP280;62384;53.600;10.040;2022-11-25T05:31:40;-9395.13;;;5.56
74043;BMP280;62384;53.600;10.040;2022-11-25T05:34:05;-9396.03;;;5.60
74043;BMP280;62384;53.600;10.040;2022-11-25T05:36:31;-9397.34;;;5.65
74043;BMP280;62384;53.600;10.040;2022-11-25T05:38:56;-9397.22;;;5.65
74043;BMP280;62384;53.600;10.040;2022-11-25T05:41:22;-9398.41;;;5.69
74043;BMP280;62384;53.600;10.040;2022-11-25T05:43:47;-9398.28;;;5.69
74043;BMP280;62384;53.600;10.040;2022-11-25T05:46:13;-9398.53;;;5.70
74043;BMP280;62384;53.600;10.040;2022-11-25T05:48:38;-9400.66;;;5.78
74043;BMP280;62384;53.600;10.040;2022-11-25T05:51:04;-9403.13;;;5.87
74043;BMP280;62384;53.600;10.040;2022-11-25T05:53:30;-9404.47;;;5.92
74043;BMP280;62384;53.600;10.040;2022-11-25T05:56:00;-9404.97;;;5.94
74043;BMP280;62384;53.600;10.040;2022-11-25T05:58:27;-9405.13;;;5.95
74043;BMP280;62384;53.600;10.040;2022-11-25T06:00:53;-9403.78;;;5.90
74043;BMP280;62384;53.600;10.040;2022-11-25T06:03:18;-9404.19;;;5.91
74043;BMP280;62384;53.600;10.040;2022-11-25T06:05:44;-9403.53;;;5.89
74043;BMP280;62384;53.600;10.040;2022-11-25T06:08:09;-9401.97;;;5.83
74043;BMP280;62384;53.600;10.040;2022-11-25T06:10:39;-9407.88;;;6.05
74043;BMP280;62384;53.600;10.040;2022-11-25T06:13:05;-9408.28;;;6.07
74043;BMP280;62384;53.600;10.040;2022-11-25T06:15:30;-9406.97;;;6.02
74043;BMP280;62384;53.600;10.040;2022-11-25T06:17:56;-9404.59;;;5.93
74043;BMP280;62384;53.600;10.040;2022-11-25T06:20:21;-9404.84;;;5.94
74043;BMP280;62384;53.600;10.040;2022-11-25T06:22:46;-9405.91;;;5.98
74043;BMP280;62384;53.600;10.040;2022-11-25T06:25:12;-9398.41;;;5.69
74043;BMP280;62384;53.600;10.040;2022-11-25T06:27:37;-9404.59;;;5.93
74043;BMP280;62384;53.600;10.040;2022-11-25T06:30:03;-9404.72;;;5.93
74043;BMP280;62384;53.600;10.040;2022-11-25T06:32:28;-9404.19;;;5.91
74043;BMP280;62384;53.600;10.040;2022-11-25T06:34:53;-9403.66;;;5.89
74043;BMP280;62384;53.600;10.040;2022-11-25T06:37:19;-9404.19;;;5.91
74043;BMP280;62384;53.600;10.040;2022-11-25T06:39:44;-9404.47;;;5.92
74043;BMP280;62384;53.600;10.040;2022-11-25T06:42:10;-9408.00;;;6.06
74043;BMP280;62384;53.600;10.040;2022-11-25T06:44:35;-9406.03;;;5.98
74043;BMP280;62384;53.600;10.040;2022-11-25T06:47:00;-9404.31;;;5.92
74043;BMP280;62384;53.600;10.040;2022-11-25T06:49:26;-9406.69;;;6.01
74043;BMP280;62384;53.600;10.040;2022-11-25T06:51:53;-9406.44;;;6.00
74043;BMP280;62384;53.600;10.040;2022-11-25T06:54:18;-9406.97;;;6.02
74043;BMP280;62384;53.600;10.040;2022-11-25T06:56:43;-9404.06;;;5.91
74043;BMP280;62384;53.600;10.040;2022-11-25T06:59:09;-9405.50;;;5.96
74043;BMP280;62384;53.600;10.040;2022-11-25T07:01:34;-9405.91;;;5.98
74043;BMP280;62384;53.600;10.040;2022-11-25T07:04:02;-9408.28;;;6.07
74043;BMP280;62384;53.600;10.040;2022-11-25T07:06:28;-9409.31;;;6.11
74043;BMP280;62384;53.600;10.040;2022-11-25T07:08:54;-9408.00;;;6.06
74043;BMP280;62384;53.600;10.040;2022-11-25T07:11:31;-9400.00;;;5.75
74043;BMP280;62384;53.600;10.040;2022-11-25T07:14:00;-9409.47;;;6.11
74043;BMP280;62384;53.600;10.040;2022-11-25T07:16:26;-9410.91;;;6.17
74043;BMP280;62384;53.600;10.040;2022-11-25T07:18:52;-9410.38;;;6.15
74043;BMP280;62384;53.600;10.040;2022-11-25T07:21:20;-9410.09;;;6.14
74043;BMP280;62384;53.600;10.040;2022-11-25T07:23:46;-9408.53;;;6.08
74043;BMP280;62384;53.600;10.040;2022-11-25T07:26:20;-9410.09;;;6.14
74043;BMP280;62384;53.600;10.040;2022-11-25T07:28:47;-9409.31;;;6.11
74043;BMP280;62384;53.600;10.040;2022-11-25T07:31:18;-9410.38;;;6.15
74043;BMP280;62384;53.600;10.040;2022-11-25T07:33:45;-9412.22;;;6.22
74043;BMP280;62384;53.600;10.040;2022-11-25T07:36:12;-9413.53;;;6.27
74043;BMP280;62384;53.600;10.040;2022-11-25T07:38:38;-9415.38;;;6.34
74043;BMP280;62384;53.600;10.040;2022-11-25T07:41:09;-9412.88;;;6.25
74043;BMP280;62384;53.600;10.040;2022-11-25T07:43:38;-9414.19;;;6.30
74043;BMP280;62384;53.600;10.040;2022-11-25T07:46:21;-9411.44;;;6.19
74043;BMP280;62384;53.600;10.040;2022-11-25T07:48:47;-9414.44;;;6.31
74043;BMP280;62384;53.600;10.040;2022-11-25T07:51:16;-9416.69;;;6.39
74043;BMP280;62384;53.600;10.040;2022-11-25T07:53:42;-9415.63;;;6.35
74043;BMP280;62384;53.600;10.040;2022-11-25T07:56:07;-9417.47;;;6.42
74043;BMP280;62384;53.600;10.040;2022-11-25T07:58:33;-9418.13;;;6.45
74043;BMP280;62384;53.600;10.040;2022-11-25T08:01:03;-9421.03;;;6.56
74043;BMP280;62384;53.600;10.040;2022-11-25T08:03:28;-9420.63;;;6.54
74043;BMP280;62384;53.600;10.040;2022-11-25T08:05:59;-9421.16;;;6.56
74043;BMP280;62384;53.600;10.040;2022-11-25T08:08:24;-9422.22;;;6.60
74043;BMP280;62384;53.600;10.040;2022-11-25T08:10:51;-9422.34;;;6.61
74043;BMP280;62384;53.600;10.040;2022-11-25T08:13:16;-9422.22;;;6.60
74043;BMP280;62384;53.600;10.040;2022-11-25T08:15:43;-9423.28;;;6.64
74043;BMP280;62384;53.600;10.040;2022-11-25T08:18:08;-9421.81;;;6.59
74043;BMP280;62384;53.600;10.040;2022-11-25T08:20:33;-9421.28;;;6.57
74043;BMP280;62384;53.600;10.040;2022-11-25T08:22:59;-9423.53;;;6.65
74043;BMP280;62384;53.600;10.040;2022-11-25T08:25:24;-9424.06;;;6.67
74043;BMP280;62384;53.600;10.040;2022-11-25T08:27:51;-9426.28;;;6.76
74043;BMP280;62384;53.600;10.040;2022-11-25T08:30:17;-9428.00;;;6.82
74043;BMP280;62384;53.600;10.040;2022-11-25T08:32:45;-9429.06;;;6.87
74043;BMP280;62384;53.600;10.040;2022-11-25T08:35:11;-9429.59;;;6.89
74043;BMP280;62384;53.600;10.040;2022-11-25T08:37:36;-9429.44;;;6.88
74043;BMP280;62384;53.600;10.040;2022-11-25T08:40:02;-9431.03;;;6.94
74043;BMP280;62384;53.600;10.040;2022-11-25T08:42:28;-9428.66;;;6.85
74043;BMP280;62384;53.600;10.040;2022-11-25T08:44:54;-9429.44;;;6.88
74043;BMP280;62384;53.600;10.040;2022-11-25T08:47:21;-9429.44;;;6.88
74043;BMP280;62384;53.600;10.040;2022-11-25T08:49:52;-9432.59;;;7.00
74043;BMP280;62384;53.600;10.040;2022-11-25T08:52:17;-9432.34;;;6.99
74043;BMP280;62384;53.600;10.040;2022-11-25T08:54:43;-9430.25;;;6.91
74043;BMP280;62384;53.600;10.040;2022-11-25T08:57:08;-9429.72;;;6.89
74043;BMP280;62384;53.600;10.040;2022-11-25T08:59:34;-9432.09;;;6.98
74043;BMP280;62384;53.600;10.040;2022-11-25T09:01:59;-9432.09;;;6.98
74043;BMP280;62384;53.600;10.040;2022-11-25T09:04:25;-9433.53;;;7.04
74043;BMP280;62384;53.600;10.040;2022-11-25T09:06:50;-9433.00;;;7.02
74043;BMP280;62384;53.600;10.040;2022-11-25T09:09:15;-9433.25;;;7.03
74043;BMP280;62384;53.600;10.040;2022-11-25T09:11:41;-9431.94;;;6.98
74043;BMP280;62384;53.600;10.040;2022-11-25T09:14:06;-9429.84;;;6.90
74043;BMP280;62384;53.600;10.040;2022-11-25T09:16:32;-9431.69;;;6.97
74043;BMP280;62384;53.600;10.040;2022-11-25T09:18:57;-9434.19;;;7.06
74043;BMP280;62384;53.600;10.040;2022-11-25T09:21:24;-9433.78;;;7.05
74043;BMP280;62384;53.600;10.040;2022-11-25T09:23:50;-9433.53;;;7.04
74043;BMP280;62384;53.600;10.040;2022-11-25T09:26:36;-9433.25;;;7.03
74043;BMP280;62384;53.600;10.040;2022-11-25T09:29:05;-9432.75;;;7.01
74043;BMP280;62384;53.600;10.040;2022-11-25T09:31:31;-9429.72;;;6.89
74043;BMP280;62384;53.600;10.040;2022-11-25T09:33:57;-9431.41;;;6.96
74043;BMP280;62384;53.600;10.040;2022-11-25T09:36:22;-9428.78;;;6.86
74043;BMP280;62384;53.600;10.040;2022-11-25T09:38:48;-9430.25;;;6.91
74043;BMP280;62384;53.600;10.040;2022-11-25T09:44:30;-9431.16;;;6.95
74043;BMP280;62384;53.600;10.040;2022-11-25T09:55:17;-9429.84;;;6.90
74043;BMP280;62384;53.600;10.040;2022-11-25T09:57:51;-9429.59;;;6.89
74043;BMP280;62384;53.600;10.040;2022-11-25T10:00:20;-9430.25;;;6.91
74043;BMP280;62384;53.600;10.040;2022-11-25T10:03:05;-9431.03;;;6.94
74043;BMP280;62384;53.600;10.040;2022-11-25T10:05:36;-9431.28;;;6.95
74043;BMP280;62384;53.600;10.040;2022-11-25T10:08:10;-9430.75;;;6.93
74043;BMP280;62384;53.600;10.040;2022-11-25T10:10:42;-9429.84;;;6.90
74043;BMP280;62384;53.600;10.040;2022-11-25T10:13:16;-9429.31;;;6.88
74043;BMP280;62384;53.600;10.040;2022-11-25T10:15:47;-9430.09;;;6.91
74043;BMP280;62384;53.600;10.040;2022-11-25T10:18:37;-9430.63;;;6.93
74043;BMP280;62384;53.600;10.040;2022-11-25T10:21:03;-9428.00;;;6.82
74043;BMP280;62384;53.600;10.040;2022-11-25T10:23:35;-9428.13;;;6.83
74043;BMP280;62384;53.600;10.040;2022-11-25T10:26:15;-9430.38;;;6.92
74043;BMP280;62384;53.600;10.040;2022-11-25T10:28:50;-9427.75;;;6.81
74043;BMP280;62384;53.600;10.040;2022-11-25T10:31:19;-9429.59;;;6.89
74043;BMP280;62384;53.600;10.040;2022-11-25T10:33:48;-9428.78;;;6.86
74043;BMP280;62384;53.600;10.040;2022-11-25T10:41:21;-9431.28;;;6.95
74043;BMP280;62384;53.600;10.040;2022-11-25T10:43:47;-9431.03;;;6.94
74043;BMP280;62384;53.600;10.040;2022-11-25T10:48:53;-9434.97;;;7.09
74043;BMP280;62384;53.600;10.040;2022-11-25T10:51:36;-9433.00;;;7.02
74043;BMP280;62384;53.600;10.040;2022-11-25T10:54:21;-9434.31;;;7.07
74043;BMP280;62384;53.600;10.040;2022-11-25T10:56:50;-9435.09;;;7.10
74043;BMP280;62384;53.600;10.040;2022-11-25T11:01:46;-9437.34;;;7.18
74043;BMP280;62384;53.600;10.040;2022-11-25T11:04:13;-9439.56;;;7.27
74043;BMP280;62384;53.600;10.040;2022-11-25T11:06:44;-9438.91;;;7.24
74043;BMP280;62384;53.600;10.040;2022-11-25T11:09:32;-9438.91;;;7.24
74043;BMP280;62384;53.600;10.040;2022-11-25T11:12:08;-9439.19;;;7.25
74043;BMP280;62384;53.600;10.040;2022-11-25T11:14:37;-9436.81;;;7.16
74043;BMP280;62384;53.600;10.040;2022-11-25T11:17:02;-9439.31;;;7.26
74043;BMP280;62384;53.600;10.040;2022-11-25T11:19:29;-9440.09;;;7.29
74043;BMP280;62384;53.600;10.040;2022-11-25T11:21:56;-9437.06;;;7.17
74043;BMP280;62384;53.600;10.040;2022-11-25T11:24:37;-9437.06;;;7.17
74043;BMP280;62384;53.600;10.040;2022-11-25T11:27:18;-9440.38;;;7.30
74043;BMP280;62384;53.600;10.040;2022-11-25T11:29:44;-9438.13;;;7.21
74043;BMP280;62384;53.600;10.040;2022-11-25T11:32:22;-9436.44;;;7.15
74043;BMP280;62384;53.600;10.040;2022-11-25T11:34:57;-9441.81;;;7.35
74043;BMP280;62384;53.600;10.040;2022-11-25T11:37:38;-9444.06;;;7.44
74043;BMP280;62384;53.600;10.040;2022-11-25T11:40:34;-9444.06;;;7.44
74043;BMP280;62384;53.600;10.040;2022-11-25T11:43:12;-9440.38;;;7.30
74043;BMP280;62384;53.600;10.040;2022-11-25T11:51:57;-9445.09;;;7.48
74043;BMP280;62384;53.600;10.040;2022-11-25T11:54:10;-9443.13;;;7.40
74043;BMP280;62384;53.600;10.040;2022-11-25T11:56:46;-9443.13;;;7.40
74043;BMP280;62384;53.600;10.040;2022-11-25T11:59:39;-9444.44;;;7.45
74043;BMP280;62384;53.600;10.040;2022-11-25T12:10:24;-9449.19;;;7.64
74043;BMP280;62384;53.600;10.040;2022-11-25T12:13:24;-9452.19;;;7.75
74043;BMP280;62384;53.600;10.040;2022-11-25T12:19:02;-9449.84;;;7.66
74043;BMP280;62384;53.600;10.040;2022-11-25T12:21:57;-9448.00;;;7.59
74043;BMP280;62384;53.600;10.040;2022-11-25T12:24:26;-9448.91;;;7.63
74043;BMP280;62384;53.600;10.040;2022-11-25T12:27:16;-9450.63;;;7.69
74043;BMP280;62384;53.600;10.040;2022-11-25T12:29:51;-9452.19;;;7.75
74043;BMP280;62384;53.600;10.040;2022-11-25T12:43:40;-9457.22;;;7.94
74043;BMP280;62384;53.600;10.040;2022-11-25T12:46:35;-9458.25;;;7.98
74043;BMP280;62384;53.600;10.040;2022-11-25T12:49:05;-9459.56;;;8.03
74043;BMP280;62384;53.600;10.040;2022-11-25T12:51:43;-9457.47;;;7.95
74043;BMP280;62384;53.600;10.040;2022-11-25T13:02:45;-9462.06;;;8.13
74043;BMP280;62384;53.600;10.040;2022-11-25T13:05:52;-9463.66;;;8.19
74043;BMP280;62384;53.600;10.040;2022-11-25T13:17:09;-9461.81;;;8.12
74043;BMP280;62384;53.600;10.040;2022-11-25T13:19:35;-9459.84;;;8.04
74043;BMP280;62384;53.600;10.040;2022-11-25T13:22:24;-9462.88;;;8.16
74043;BMP280;62384;53.600;10.040;2022-11-25T13:24:49;-9460.38;;;8.06
74043;BMP280;62384;53.600;10.040;2022-11-25T13:30:05;-9464.31;;;8.22
74043;BMP280;62384;53.600;10.040;2022-11-25T13:32:50;-9462.06;;;8.13
74043;BMP280;62384;53.600;10.040;2022-11-25T13:37:51;-9462.06;;;8.13
74043;BMP280;62384;53.600;10.040;2022-11-25T13:40:20;-9465.75;;;8.27
74043;BMP280;62384;53.600;10.040;2022-11-25T13:42:54;-9463.91;;;8.20
74043;BMP280;62384;53.600;10.040;2022-11-25T13:45:31;-9466.94;;;8.32
74043;BMP280;62384;53.600;10.040;2022-11-25T13:50:36;-9468.66;;;8.38
74043;BMP280;62384;53.600;10.040;2022-11-25T13:53:17;-9469.44;;;8.41
74043;BMP280;62384;53.600;10.040;2022-11-25T13:55:43;-9470.22;;;8.44
74043;BMP280;62384;53.600;10.040;2022-11-25T14:06:28;-9472.75;;;8.54
74043;BMP280;62384;53.600;10.040;2022-11-25T14:09:03;-9475.63;;;8.65
74043;BMP280;62384;53.600;10.040;2022-11-25T14:11:45;-9473.25;;;8.56
74043;BMP280;62384;53.600;10.040;2022-11-25T14:24:53;-9471.16;;;8.48
74043;BMP280;62384;53.600;10.040;2022-11-25T14:27:26;-9473.25;;;8.56
74043;BMP280;62384;53.600;10.040;2022-11-25T14:29:58;-9474.19;;;8.59
74043;BMP280;62384;53.600;10.040;2022-11-25T14:35:13;-9479.84;;;8.81
74043;BMP280;62384;53.600;10.040;2022-11-25T14:37:49;-9479.56;;;8.80
74043;BMP280;62384;53.600;10.040;2022-11-25T14:40:30;-9478.41;;;8.76
74043;BMP280;62384;53.600;10.040;2022-11-25T14:43:09;-9478.00;;;8.74
74043;BMP280;62384;53.600;10.040;2022-11-25T14:45:36;-9479.31;;;8.79
74043;BMP280;62384;53.600;10.040;2022-11-25T14:48:16;-9478.13;;;8.74
74043;BMP280;62384;53.600;10.040;2022-11-25T14:50:59;-9476.69;;;8.69
74043;BMP280;62384;53.600;10.040;2022-11-25T14:53:27;-9475.63;;;8.65
74043;BMP280;62384;53.600;10.040;2022-11-25T14:55:53;-9474.56;;;8.61
74043;BMP280;62384;53.600;10.040;2022-11-25T14:58:22;-9474.84;;;8.62
74043;BMP280;62384;53.600;10.040;2022-11-25T15:01:08;-9474.44;;;8.60
74043;BMP280;62384;53.600;10.040;2022-11-25T15:03:41;-9474.44;;;8.60
74043;BMP280;62384;53.600;10.040;2022-11-25T15:06:11;-9475.38;;;8.64
74043;BMP280;62384;53.600;10.040;2022-11-25T15:08:45;-9476.28;;;8.67
74043;BMP280;62384;53.600;10.040;2022-11-25T15:11:17;-9475.75;;;8.65
74043;BMP280;62384;53.600;10.040;2022-11-25T15:13:52;-9476.41;;;8.68
74043;BMP280;62384;53.600;10.040;2022-11-25T15:16:22;-9476.41;;;8.68
74043;BMP280;62384;53.600;10.040;2022-11-25T15:18:50;-9477.47;;;8.72
74043;BMP280;62384;53.600;10.040;2022-11-25T15:21:20;-9477.47;;;8.72
74043;BMP280;62384;53.600;10.040;2022-11-25T15:23:46;-9476.69;;;8.69
74043;BMP280;62384;53.600;10.040;2022-11-25T15:26:20;-9477.59;;;8.72
74043;BMP280;62384;53.600;10.040;2022-11-25T15:28:53;-9479.03;;;8.78
74043;BMP280;62384;53.600;10.040;2022-11-25T15:31:19;-9479.03;;;8.78
74043;BMP280;62384;53.600;10.040;2022-11-25T15:33:46;-9479.19;;;8.79
74043;BMP280;62384;53.600;10.040;2022-11-25T15:36:11;-9478.66;;;8.77
74043;BMP280;62384;53.600;10.040;2022-11-25T15:38:42;-9479.31;;;8.79
74043;BMP280;62384;53.600;10.040;2022-11-25T15:41:32;-9480.75;;;8.85
74043;BMP280;62384;53.600;10.040;2022-11-25T15:44:03;-9480.38;;;8.83
74043;BMP280;62384;53.600;10.040;2022-11-25T15:46:32;-9481.69;;;8.88
74043;BMP280;62384;53.600;10.040;2022-11-25T15:49:14;-9482.47;;;8.91
74043;BMP280;62384;53.600;10.040;2022-11-25T15:51:50;-9482.75;;;8.92
74043;BMP280;62384;53.600;10.040;2022-11-25T15:54:30;-9482.06;;;8.90
74043;BMP280;62384;53.600;10.040;2022-11-25T15:57:26;-9482.47;;;8.91
74043;BMP280;62384;53.600;10.040;2022-11-25T16:07:39;-9483.41;;;8.95
74043;BMP280;62384;53.600;10.040;2022-11-25T16:18:36;-9486.69;;;9.07
74043;BMP280;62384;53.600;10.040;2022-11-25T16:21:18;-9486.56;;;9.07